EmailTwitter


Observations de surface / Québec / LFRS

Régions: Québec | Canada | États-Unis | Europe | France | UK | Elsewhere
Station
Affichage
Infos & localisation pour LFRS | Aide pour décoder les METARs

Observations prises le 2017-02-23 à 04H30 UTC à NANTES/ATLANTIQU, FR (LFRS)

Etat du ciel: couvert.

Température: 9.0 Celsius

Point de rosée: 7.0 Celsius

Humidité relative: 87%

Facteur vent: 7.

Vents: Sud-ouest à 15 km/h ou 8 noeuds.

Pression au niveau moyen de la mer: 101.30 kilopascals.

Visibilité horizontale: 6.21 milles terrestres ou 9.94 kilomètres.

Hauteur du plafond: 488 mètres ( 1600 pieds ).

Observation METAR:

LFRS 230430Z AUTO 24008KT 210V270 9999 OVC016 09/07 Q1013 TEMPO 4000 -DZ BKN006

OVC012=